Time;durP1;ratioP1;P1;durP2;ratioP2;P2;SDS_P1;SDS_P2;PMS_P1;PMS_P2;Temp;Humidity;BMP_temperature;BMP_pressure;BME280_temperature;BME280_humidity;BME280_pressure;Samples;Min_cycle;Max_cycle;Signal;HPM_P1;HPM_P2
2021/11/11 00:02:44;;;;;;;11.07;8.37;;;3.30;99.90;2.80;97697.00;;;;5052918;28;20426;-86
2021/11/11 00:05:34;;;;;;;16.77;8.60;;;3.60;99.90;2.70;97688.00;;;;5052586;28;20444;-88
2021/11/11 00:08:24;;;;;;;14.27;9.70;;;3.20;99.90;2.70;97693.00;;;;5054098;28;20439;-85
2021/11/11 00:11:13;;;;;;;14.13;8.63;;;3.10;99.90;2.70;97692.00;;;;5051184;28;20443;-87
2021/11/11 00:14:02;;;;;;;11.43;8.60;;;3.10;99.90;2.50;97691.00;;;;5051632;28;20507;-86
2021/11/11 00:16:52;;;;;;;13.10;8.70;;;3.00;99.90;2.60;97694.00;;;;5050267;28;20826;-88
2021/11/11 00:19:41;;;;;;;11.80;9.57;;;4.10;99.90;2.70;97692.00;;;;5049030;28;20419;-86
2021/11/11 00:22:30;;;;;;;11.30;8.47;;;2.90;99.90;2.70;97692.00;;;;5050530;28;20434;-86
2021/11/11 00:25:23;;;;;;;17.60;10.20;;;3.10;99.90;2.60;97691.00;;;;5049258;28;20451;-87
2021/11/11 00:28:11;;;;;;;12.07;9.30;;;3.00;99.90;2.50;97691.00;;;;5049772;28;20431;-86
2021/11/11 00:31:00;;;;;;;11.23;8.87;;;2.80;99.90;2.60;97691.00;;;;5048995;28;20450;-86
2021/11/11 00:33:49;;;;;;;11.10;8.77;;;2.90;99.90;2.50;97691.00;;;;5049387;28;20435;-86
2021/11/11 00:36:38;;;;;;;14.63;9.77;;;2.80;99.90;2.60;97675.00;;;;5048723;28;20792;-87
2021/11/11 00:39:27;;;;;;;11.13;8.90;;;2.80;99.90;2.40;97677.00;;;;5049592;28;20443;-86
2021/11/11 00:42:18;;;;;;;12.90;9.13;;;2.90;99.90;2.20;97668.00;;;;5047964;28;20824;-83
2021/11/11 00:45:08;;;;;;;15.80;9.40;;;3.70;99.90;2.20;97675.00;;;;5048547;28;20935;-86
2021/11/11 00:47:57;;;;;;;12.73;8.97;;;2.70;99.90;2.20;97667.00;;;;5050022;28;20434;-87
2021/11/11 00:50:47;;;;;;;10.73;8.07;;;2.90;99.90;2.00;97675.00;;;;5048524;28;20481;-87
2021/11/11 00:53:36;;;;;;;10.93;8.23;;;4.20;99.90;1.90;97659.00;;;;5049647;28;20471;-86
2021/11/11 00:56:25;;;;;;;12.57;9.17;;;3.40;99.90;1.90;97666.00;;;;5049315;28;20455;-86
2021/11/11 00:59:15;;;;;;;13.53;8.20;;;2.70;99.90;1.80;97653.00;;;;5049288;28;20443;-86
2021/11/11 01:02:08;;;;;;;13.83;8.67;;;3.10;99.90;1.90;97657.00;;;;5053144;28;20447;-86
2021/11/11 01:04:56;;;;;;;15.80;8.90;;;2.40;99.90;2.00;97662.00;;;;5053591;28;22131;-85
2021/11/11 01:07:46;;;;;;;12.53;8.90;;;3.20;99.90;2.10;97644.00;;;;5052839;28;20514;-83
2021/11/11 01:10:36;;;;;;;11.47;9.33;;;3.20;99.90;2.00;97670.00;;;;5052303;28;20427;-85
2021/11/11 01:13:25;;;;;;;9.23;7.63;;;3.10;99.90;1.90;97657.00;;;;5052593;28;20822;-85
2021/11/11 01:16:15;;;;;;;9.80;7.90;;;2.50;99.90;1.60;97658.00;;;;5052716;28;20451;-83
2021/11/11 01:19:04;;;;;;;9.90;7.30;;;2.20;99.90;1.60;97649.00;;;;5052184;28;20997;-82
2021/11/11 01:21:54;;;;;;;11.70;7.50;;;2.10;99.90;1.80;97664.00;;;;5051841;28;20430;-86
2021/11/11 01:24:43;;;;;;;11.37;7.83;;;2.80;99.90;1.90;97648.00;;;;5053356;28;20944;-86
2021/11/11 01:27:31;;;;;;;11.60;8.47;;;2.10;99.90;1.80;97653.00;;;;5052311;28;20423;-84
2021/11/11 01:30:20;;;;;;;12.40;7.63;;;2.10;99.90;1.70;97636.00;;;;5050711;28;20503;-85
2021/11/11 01:33:12;;;;;;;10.20;8.43;;;2.10;99.90;1.70;97632.00;;;;5052727;28;20478;-86
2021/11/11 01:36:01;;;;;;;17.37;8.53;;;2.30;99.90;1.40;97626.00;;;;5050976;28;20955;-86
2021/11/11 01:38:50;;;;;;;10.47;8.03;;;2.10;99.90;1.40;97623.00;;;;5051451;28;20812;-85
2021/11/11 01:41:44;;;;;;;12.83;8.27;;;2.90;99.90;1.60;97621.00;;;;5052482;28;20451;-84
2021/11/11 01:44:32;;;;;;;20.63;8.37;;;2.60;99.90;1.80;97606.00;;;;5052529;28;20939;-84
2021/11/11 01:47:22;;;;;;;10.57;7.97;;;2.20;99.90;1.90;97615.00;;;;5049614;28;20443;-87
2021/11/11 01:50:13;;;;;;;9.50;7.60;;;2.30;99.90;1.60;97609.00;;;;5051389;28;20429;-86
2021/11/11 01:53:03;;;;;;;9.43;7.77;;;2.20;99.90;1.30;97613.00;;;;5051638;28;20463;-86
2021/11/11 01:55:53;;;;;;;14.37;8.57;;;2.10;99.90;1.60;97609.00;;;;5051631;28;20455;-85
2021/11/11 01:58:42;;;;;;;9.73;8.03;;;2.00;99.90;1.60;97597.00;;;;5051179;28;20428;-86
2021/11/11 02:01:31;;;;;;;9.70;8.10;;;2.10;99.90;1.90;97604.00;;;;5051075;28;20420;-85
2021/11/11 02:04:20;;;;;;;12.37;9.43;;;2.10;99.90;1.70;97588.00;;;;5052245;28;20427;-85
2021/11/11 02:07:10;;;;;;;12.90;8.13;;;2.10;99.90;1.70;97584.00;;;;5051201;28;20455;-84
2021/11/11 02:09:59;;;;;;;10.53;8.00;;;2.50;99.90;1.70;97584.00;;;;5050974;28;20443;-84
2021/11/11 02:12:48;;;;;;;8.37;6.67;;;2.30;99.90;1.30;97580.00;;;;5049937;28;20468;-86
2021/11/11 02:15:38;;;;;;;8.27;6.50;;;2.00;99.90;1.00;97570.00;;;;5050247;28;20493;-85
2021/11/11 02:18:27;;;;;;;10.83;7.37;;;1.90;99.90;1.40;97574.00;;;;5051071;28;20415;-85
2021/11/11 02:21:18;;;;;;;8.90;7.47;;;1.90;99.90;1.40;97570.00;;;;5051849;28;20435;-86
2021/11/11 02:24:07;;;;;;;12.33;7.97;;;1.90;99.90;1.30;97577.00;;;;5051685;28;20983;-85
2021/11/11 02:26:56;;;;;;;8.17;6.40;;;1.80;99.90;1.20;97574.00;;;;5050111;28;20458;-85
2021/11/11 02:29:45;;;;;;;10.20;7.87;;;1.70;99.90;1.10;97561.00;;;;5050499;28;20434;-88
2021/11/11 02:32:35;;;;;;;9.10;7.50;;;1.90;99.90;1.20;97559.00;;;;5052025;28;21002;-85
2021/11/11 02:35:24;;;;;;;7.93;7.10;;;1.70;99.90;1.40;97546.00;;;;5050924;28;20452;-82
2021/11/11 02:38:16;;;;;;;8.17;6.57;;;1.70;99.90;1.40;97547.00;;;;5051792;28;20958;-86
2021/11/11 02:41:05;;;;;;;13.10;8.20;;;1.90;99.90;1.60;97556.00;;;;5052144;28;20420;-86
2021/11/11 02:43:54;;;;;;;10.43;7.10;;;1.80;99.90;1.80;97549.00;;;;5050935;28;20435;-82
2021/11/11 02:46:43;;;;;;;9.17;8.03;;;2.30;99.90;1.80;97547.00;;;;5049904;28;20469;-86
2021/11/11 02:49:33;;;;;;;10.03;8.07;;;2.10;99.90;1.60;97534.00;;;;5051565;28;20441;-86
2021/11/11 02:52:22;;;;;;;8.73;6.73;;;2.00;99.90;1.40;97525.00;;;;5051713;28;20420;-84
2021/11/11 02:55:13;;;;;;;13.47;7.33;;;1.90;99.90;1.00;97540.00;;;;5051656;28;20427;-86
2021/11/11 02:58:03;;;;;;;9.57;6.47;;;2.50;99.90;1.00;97533.00;;;;5050410;28;20432;-85
2021/11/11 03:00:54;;;;;;;7.97;6.70;;;1.70;99.90;1.00;97523.00;;;;5039559;28;20427;-86
2021/11/11 03:03:43;;;;;;;8.80;7.37;;;1.60;99.90;0.90;97523.00;;;;5050639;28;20434;-85
2021/11/11 03:06:32;;;;;;;8.47;7.30;;;1.60;99.90;0.60;97518.00;;;;5050430;28;20995;-84
2021/11/11 03:09:21;;;;;;;8.27;7.20;;;1.50;99.90;0.90;97514.00;;;;5050442;28;20427;-85
2021/11/11 03:12:11;;;;;;;10.03;7.80;;;1.40;99.90;1.10;97520.00;;;;5040510;28;20436;-83
2021/11/11 03:15:00;;;;;;;10.13;7.30;;;1.40;99.90;1.10;97512.00;;;;5049690;28;20463;-86
2021/11/11 03:17:50;;;;;;;10.53;8.13;;;1.50;99.90;1.00;97515.00;;;;5049674;28;20666;-84
2021/11/11 03:20:39;;;;;;;12.00;7.93;;;2.50;99.90;0.80;97509.00;;;;5050002;28;20958;-86
2021/11/11 03:23:28;;;;;;;9.50;7.40;;;1.50;99.90;0.80;97513.00;;;;5050778;28;20435;-84
2021/11/11 03:26:18;;;;;;;12.43;8.63;;;1.60;99.90;0.90;97518.00;;;;5049946;28;20443;-85
2021/11/11 03:29:08;;;;;;;12.73;7.43;;;1.40;99.90;0.70;97499.00;;;;5048937;28;20427;-84
2021/11/11 03:31:57;;;;;;;8.40;6.30;;;1.30;99.90;0.30;97505.00;;;;5045919;28;20435;-87
2021/11/11 03:34:46;;;;;;;8.30;7.47;;;1.50;99.90;0.40;97512.00;;;;5051063;28;20470;-84
2021/11/11 03:37:35;;;;;;;9.50;7.73;;;1.10;99.90;0.70;97501.00;;;;5049582;28;20424;-84
2021/11/11 03:40:27;;;;;;;9.80;7.27;;;1.20;99.90;0.60;97495.00;;;;5049808;28;20815;-86
2021/11/11 03:43:16;;;;;;;13.03;9.10;;;1.20;99.90;0.80;97497.00;;;;5050520;28;20423;-84
2021/11/11 03:46:06;;;;;;;12.27;9.07;;;1.40;99.90;0.90;97505.00;;;;5047231;28;20842;-84
2021/11/11 03:48:55;;;;;;;10.50;8.27;;;1.40;99.90;1.10;97488.00;;;;5050679;28;20436;-84
2021/11/11 03:51:46;;;;;;;11.27;8.20;;;2.10;99.90;1.10;97498.00;;;;5049620;28;20435;-85
2021/11/11 03:54:35;;;;;;;8.43;6.73;;;1.40;99.90;0.70;97497.00;;;;5052334;28;20475;-82
2021/11/11 03:57:25;;;;;;;10.40;8.10;;;2.20;99.90;0.70;97495.00;;;;5056421;28;20601;-83
2021/11/11 04:00:17;;;;;;;9.23;7.27;;;1.40;99.90;0.70;97494.00;;;;5059531;28;20443;-86
2021/11/11 04:03:07;;;;;;;9.33;7.37;;;1.30;99.90;0.60;97492.00;;;;5057818;28;20519;-86
2021/11/11 04:05:55;;;;;;;9.20;7.27;;;1.20;99.90;0.50;97494.00;;;;5054755;28;20456;-86
2021/11/11 04:08:44;;;;;;;9.80;6.73;;;1.10;99.90;0.50;97485.00;;;;5055585;28;20918;-84
2021/11/11 04:11:34;;;;;;;9.63;7.57;;;1.10;99.90;0.50;97478.00;;;;5055540;28;20427;-86
2021/11/11 04:14:23;;;;;;;9.63;7.07;;;1.00;99.90;0.50;97476.00;;;;5054974;28;20467;-84
2021/11/11 04:17:12;;;;;;;9.00;7.30;;;1.00;99.90;0.40;97485.00;;;;5053450;28;20459;-86
2021/11/11 04:20:02;;;;;;;9.60;7.07;;;1.00;99.90;0.60;97485.00;;;;5053813;28;20431;-85
2021/11/11 04:22:51;;;;;;;10.67;7.83;;;1.20;99.90;0.50;97493.00;;;;5054195;28;20936;-86
2021/11/11 04:25:46;;;;;;;9.13;7.83;;;1.00;99.90;0.50;97492.00;;;;5054286;28;20463;-82
2021/11/11 04:28:39;;;;;;;14.30;7.80;;;0.90;99.90;0.60;97494.00;;;;5053885;28;20440;-82
2021/11/11 04:31:31;;;;;;;9.37;7.63;;;1.00;99.90;0.50;97485.00;;;;5055850;28;20803;-86
2021/11/11 04:34:21;;;;;;;7.10;6.40;;;1.00;99.90;0.30;97486.00;;;;5053586;28;20446;-83
2021/11/11 04:37:29;;;;;;;10.20;7.90;;;1.60;99.90;0.40;97493.00;;;;5054247;28;20455;-82
2021/11/11 04:43:44;;;;;;;9.97;6.87;;;0.90;99.90;0.40;97480.00;;;;5055296;28;20435;-85
2021/11/11 04:47:06;;;;;;;11.07;7.70;;;0.90;99.90;0.60;97482.00;;;;5044340;28;20463;-86
2021/11/11 05:05:26;;;;;;;9.87;7.03;;;1.10;99.90;0.80;97481.00;;;;5035274;28;20555;-81
2021/11/11 05:08:16;;;;;;;10.43;8.37;;;1.10;99.90;0.60;97483.00;;;;5039933;28;21129;-80
2021/11/11 05:11:05;;;;;;;13.53;6.87;;;1.10;99.90;0.60;97484.00;;;;5036878;28;20455;-79
2021/11/11 05:13:54;;;;;;;11.90;7.57;;;1.10;99.90;0.30;97483.00;;;;5048463;28;20440;-81
2021/11/11 05:16:43;;;;;;;9.87;7.07;;;0.90;99.90;0.30;97486.00;;;;5048356;28;20958;-83
2021/11/11 05:19:32;;;;;;;9.77;8.43;;;0.90;99.90;0.50;97479.00;;;;5049532;28;20427;-84
2021/11/11 05:22:21;;;;;;;8.50;6.67;;;0.90;99.90;0.40;97480.00;;;;5049932;28;20466;-83
2021/11/11 05:25:14;;;;;;;13.13;8.93;;;1.60;99.90;0.60;97477.00;;;;5048956;28;20475;-82
2021/11/11 05:28:04;;;;;;;9.00;6.83;;;1.30;99.90;0.50;97486.00;;;;5050358;28;20419;-83
2021/11/11 05:30:53;;;;;;;8.03;6.33;;;0.90;99.90;0.40;97478.00;;;;5049650;28;20446;-83
2021/11/11 05:33:41;;;;;;;10.90;6.63;;;1.60;99.90;0.50;97476.00;;;;5050197;28;20440;-84
2021/11/11 05:36:30;;;;;;;8.77;6.90;;;1.30;99.90;0.50;97472.00;;;;5049434;28;20447;-84
2021/11/11 05:39:19;;;;;;;7.83;6.43;;;0.90;99.90;0.40;97471.00;;;;5049116;28;20431;-86
2021/11/11 05:42:10;;;;;;;11.00;8.47;;;0.90;99.90;0.40;97475.00;;;;5020801;28;20444;-83
2021/11/11 05:44:58;;;;;;;10.07;6.00;;;0.80;99.90;0.40;97482.00;;;;5044281;28;20866;-86
2021/11/11 05:47:47;;;;;;;7.97;6.50;;;0.80;99.90;0.20;97477.00;;;;5042157;28;20428;-85
2021/11/11 05:50:37;;;;;;;8.80;6.53;;;1.00;99.90;0.10;97490.00;;;;5054063;28;20435;-81
2021/11/11 05:53:26;;;;;;;7.43;6.13;;;0.70;99.90;0.20;97486.00;;;;5054632;28;20429;-85
2021/11/11 05:56:15;;;;;;;8.10;6.33;;;0.70;99.90;0.20;97486.00;;;;5052615;28;20478;-84
2021/11/11 05:59:05;;;;;;;10.63;6.63;;;0.70;99.90;0.20;97491.00;;;;5040751;28;20466;-84
2021/11/11 06:01:54;;;;;;;8.67;6.50;;;0.70;99.90;0.40;97510.00;;;;5053660;28;20438;-84
2021/11/11 06:04:44;;;;;;;8.43;6.40;;;0.70;99.90;0.40;97519.00;;;;5048322;28;20546;-85
2021/11/11 06:07:33;;;;;;;11.43;7.43;;;0.70;99.90;0.40;97520.00;;;;5056506;28;20423;-83
2021/11/11 06:10:22;;;;;;;7.57;6.27;;;0.70;99.90;0.40;97511.00;;;;5056052;28;20450;-85
2021/11/11 06:13:10;;;;;;;8.13;5.97;;;0.80;99.90;0.50;97509.00;;;;5055886;28;20432;-83
2021/11/11 06:16:01;;;;;;;8.83;6.67;;;0.80;99.90;0.50;97505.00;;;;5056026;28;20451;-83
2021/11/11 06:18:50;;;;;;;9.60;6.57;;;0.90;99.90;0.60;97513.00;;;;5059033;28;20526;-86
2021/11/11 06:21:40;;;;;;;6.10;5.40;;;0.80;99.90;0.30;97515.00;;;;5058376;28;20428;-84
2021/11/11 06:24:29;;;;;;;7.60;5.60;;;0.90;99.90;0.20;97520.00;;;;5058660;28;20984;-86
2021/11/11 06:27:19;;;;;;;13.23;7.47;;;0.80;99.90;0.20;97505.00;;;;5056394;28;20474;-83
2021/11/11 06:30:09;;;;;;;8.53;6.83;;;1.40;99.90;0.30;97504.00;;;;5050957;28;20431;-85
2021/11/11 06:33:00;;;;;;;9.80;6.33;;;0.80;99.90;0.20;97509.00;;;;5057485;28;20470;-85
2021/11/11 06:35:49;;;;;;;4.87;4.43;;;1.30;99.90;-0.20;97499.00;;;;5048129;28;20471;-86
2021/11/11 06:38:37;;;;;;;9.77;7.00;;;0.80;99.90;0.10;97519.00;;;;5050156;28;20460;-84
2021/11/11 06:41:27;;;;;;;8.43;6.50;;;0.60;99.90;0.30;97522.00;;;;5054076;28;20423;-86
2021/11/11 06:44:22;;;;;;;10.00;6.70;;;0.70;99.90;0.40;97519.00;;;;5046799;28;20518;-85
2021/11/11 06:47:11;;;;;;;7.93;6.03;;;0.80;99.90;0.40;97521.00;;;;5046376;28;20443;-85
2021/11/11 06:50:01;;;;;;;10.50;6.13;;;0.90;99.90;0.50;97523.00;;;;5054064;28;20428;-85
2021/11/11 06:52:50;;;;;;;7.73;6.67;;;0.90;99.90;0.80;97515.00;;;;5038875;28;20443;-85
2021/11/11 06:55:40;;;;;;;10.67;6.80;;;1.80;99.90;0.90;97525.00;;;;5046394;28;20455;-85
2021/11/11 06:58:29;;;;;;;9.37;7.00;;;1.00;99.90;0.90;97529.00;;;;5049181;28;20751;-87
2021/11/11 07:01:21;;;;;;;8.40;6.57;;;1.10;99.90;0.90;97518.00;;;;5033565;28;20434;-82
2021/11/11 07:04:10;;;;;;;11.80;7.23;;;1.20;99.90;0.90;97517.00;;;;5051914;28;20423;-83
2021/11/11 07:07:00;;;;;;;7.60;5.97;;;1.20;99.90;0.90;97514.00;;;;5040279;28;20462;-85
2021/11/11 07:09:49;;;;;;;10.87;6.10;;;1.50;99.90;0.80;97500.00;;;;5046409;28;20423;-86
2021/11/11 07:12:38;;;;;;;10.90;7.17;;;2.00;99.90;0.70;97500.00;;;;5053324;28;20430;-86
2021/11/11 07:15:28;;;;;;;7.47;6.03;;;1.30;99.90;0.80;97514.00;;;;5052598;28;20475;-84
2021/11/11 07:18:17;;;;;;;7.43;5.63;;;1.30;99.90;1.10;97526.00;;;;5053247;28;20427;-87
2021/11/11 07:21:06;;;;;;;10.67;7.97;;;1.70;99.90;1.20;97511.00;;;;5051864;28;20438;-83
2021/11/11 07:23:56;;;;;;;10.07;7.73;;;1.50;99.90;1.40;97528.00;;;;5052412;28;20434;-83
2021/11/11 07:26:45;;;;;;;9.07;7.70;;;1.60;99.90;1.30;97538.00;;;;5045990;28;20869;-84
2021/11/11 07:29:34;;;;;;;9.03;6.50;;;2.90;99.90;1.10;97539.00;;;;5042185;28;20440;-87
2021/11/11 07:32:23;;;;;;;9.33;7.00;;;1.70;99.90;1.20;97539.00;;;;5043558;28;20444;-85
2021/11/11 07:35:13;;;;;;;10.47;7.67;;;1.80;99.90;1.50;97532.00;;;;5048357;28;20431;-85
2021/11/11 07:38:01;;;;;;;10.53;8.00;;;1.70;99.90;1.60;97529.00;;;;5051013;28;20458;-83
2021/11/11 07:40:52;;;;;;;10.60;7.43;;;1.90;99.90;1.70;97532.00;;;;5051014;28;20931;-85
2021/11/11 07:43:40;;;;;;;15.10;8.73;;;1.80;99.90;1.60;97526.00;;;;5050899;28;20431;-85
2021/11/11 07:46:32;;;;;;;12.43;9.03;;;1.90;99.90;2.00;97528.00;;;;5035648;28;21007;-86
2021/11/11 07:49:21;;;;;;;21.77;9.97;;;2.10;99.90;2.10;97524.00;;;;5049871;28;20419;-82
2021/11/11 07:52:11;;;;;;;15.10;9.97;;;2.20;99.90;2.20;97522.00;;;;5051712;28;20442;-85
2021/11/11 07:55:01;;;;;;;27.90;10.93;;;2.30;99.90;2.10;97514.00;;;;5051390;28;20424;-86
2021/11/11 07:57:55;;;;;;;19.23;12.07;;;2.30;99.90;2.30;97522.00;;;;5052439;28;20423;-86
2021/11/11 08:00:43;;;;;;;23.10;11.93;;;2.40;99.90;2.70;97519.00;;;;5051901;28;20813;-85
2021/11/11 08:03:33;;;;;;;31.40;13.90;;;2.60;99.90;2.70;97514.00;;;;5049223;28;20430;-85
2021/11/11 08:06:22;;;;;;;32.13;14.13;;;2.70;99.90;3.00;97525.00;;;;5048212;28;20482;-86
2021/11/11 08:09:10;;;;;;;25.47;16.03;;;3.10;99.90;3.10;97523.00;;;;5047055;28;20442;-84
2021/11/11 08:12:00;;;;;;;29.60;15.80;;;2.90;99.90;3.20;97505.00;;;;5042804;28;20428;-84
2021/11/11 08:14:51;;;;;;;31.27;15.07;;;3.20;99.90;3.20;97524.00;;;;5048354;28;20621;-84
2021/11/11 08:17:40;;;;;;;40.53;18.60;;;3.20;99.90;3.30;97530.00;;;;5033531;28;20432;-84
2021/11/11 08:20:28;;;;;;;33.10;15.97;;;3.30;99.90;3.50;97527.00;;;;5047561;28;20998;-85
2021/11/11 08:23:17;;;;;;;25.43;15.47;;;3.40;99.90;3.60;97535.00;;;;5046576;28;20423;-84
2021/11/11 08:26:10;;;;;;;23.53;14.73;;;3.40;99.90;3.70;97534.00;;;;5043000;28;20475;-83
2021/11/11 08:28:59;;;;;;;36.33;15.73;;;3.60;99.90;3.70;97538.00;;;;5043797;28;20439;-84
2021/11/11 08:31:49;;;;;;;35.17;17.17;;;3.70;99.90;3.90;97534.00;;;;5046452;28;20424;-85
2021/11/11 08:34:38;;;;;;;27.50;15.60;;;3.70;99.90;4.00;97532.00;;;;5047938;28;20433;-85
2021/11/11 08:37:27;;;;;;;33.93;14.77;;;3.80;99.90;4.10;97541.00;;;;5047000;28;20437;-84
2021/11/11 08:40:18;;;;;;;23.63;15.13;;;4.00;99.90;4.10;97533.00;;;;5047006;28;20424;-83
2021/11/11 08:43:07;;;;;;;33.53;16.70;;;4.10;99.90;4.20;97549.00;;;;5047142;28;20204;-83
2021/11/11 08:45:56;;;;;;;29.57;16.00;;;4.10;99.90;4.30;97535.00;;;;5034329;28;20228;-84
2021/11/11 08:48:46;;;;;;;23.57;15.93;;;4.10;99.90;4.30;97540.00;;;;5046928;28;20219;-84
2021/11/11 08:51:35;;;;;;;30.10;15.87;;;4.20;99.90;4.30;97537.00;;;;5039025;28;20682;-85
2021/11/11 08:54:24;;;;;;;26.50;17.40;;;4.30;99.90;4.60;97538.00;;;;5046127;28;20677;-84
2021/11/11 08:57:13;;;;;;;30.10;17.97;;;4.30;99.90;4.90;97533.00;;;;5039357;28;20223;-84
2021/11/11 09:00:04;;;;;;;35.37;20.50;;;4.50;99.90;5.00;97535.00;;;;5045563;28;20200;-84
2021/11/11 09:02:56;;;;;;;39.93;22.23;;;4.80;99.90;5.40;97519.00;;;;5045174;28;20204;-85
2021/11/11 09:05:47;;;;;;;39.33;23.20;;;4.90;99.90;5.70;97530.00;;;;5030319;28;20314;-85
2021/11/11 09:08:36;;;;;;;46.60;23.47;;;5.20;99.90;5.90;97528.00;;;;5041856;28;20193;-83
2021/11/11 09:11:25;;;;;;;45.20;23.63;;;5.40;99.90;6.20;97531.00;;;;5045172;28;20212;-85
2021/11/11 09:14:14;;;;;;;51.93;27.83;;;5.60;99.90;6.40;97525.00;;;;5044534;28;20209;-85
2021/11/11 09:17:04;;;;;;;41.90;22.67;;;5.80;99.90;6.70;97519.00;;;;5040385;28;20223;-85
2021/11/11 09:19:54;;;;;;;44.00;22.13;;;6.10;99.90;6.70;97518.00;;;;5038631;28;20216;-86
2021/11/11 09:22:44;;;;;;;42.67;23.07;;;6.30;99.90;6.70;97522.00;;;;5048218;28;20209;-85
2021/11/11 09:25:34;;;;;;;40.83;22.57;;;6.40;99.90;6.90;97518.00;;;;5046266;28;20229;-85
2021/11/11 09:28:23;;;;;;;39.60;23.37;;;6.50;99.90;6.90;97524.00;;;;5040739;28;20685;-85
2021/11/11 09:31:13;;;;;;;42.87;21.73;;;6.60;99.90;6.80;97518.00;;;;5043651;28;20669;-85
2021/11/11 09:34:02;;;;;;;33.33;21.90;;;6.70;99.90;7.00;97527.00;;;;5054895;28;20212;-85
2021/11/11 09:36:51;;;;;;;36.30;20.70;;;6.70;99.90;7.00;97524.00;;;;5053635;28;20220;-85
2021/11/11 09:39:41;;;;;;;35.47;19.73;;;6.80;99.90;7.10;97525.00;;;;5052601;28;20205;-85
2021/11/11 09:42:31;;;;;;;32.53;19.67;;;6.90;99.90;7.10;97519.00;;;;5040493;28;20581;-86
2021/11/11 09:45:23;;;;;;;32.27;20.00;;;6.90;99.90;7.30;97529.00;;;;5053055;28;20205;-85
2021/11/11 09:48:14;;;;;;;36.77;22.73;;;7.00;99.90;7.60;97516.00;;;;5053191;28;20208;-85
2021/11/11 09:51:05;;;;;;;34.83;23.30;;;7.20;99.90;7.70;97525.00;;;;5053968;28;20231;-84
2021/11/11 09:54:01;;;;;;;33.67;21.57;;;7.30;99.90;8.10;97519.00;;;;5055002;28;20208;-84
2021/11/11 10:00:04;;;;;;;44.27;22.70;;;7.80;99.90;8.50;97501.00;;;;5056645;28;20234;-85
2021/11/11 10:02:55;;;;;;;48.33;22.30;;;8.00;99.90;8.80;97500.00;;;;5057179;28;20661;-86
2021/11/11 10:05:44;;;;;;;41.60;21.60;;;8.20;99.90;8.90;97504.00;;;;5056300;28;20600;-85
2021/11/11 10:08:40;;;;;;;35.93;22.93;;;8.40;99.90;9.10;97501.00;;;;5058042;28;20201;-85
2021/11/11 10:11:33;;;;;;;42.77;25.40;;;8.60;99.90;9.40;97513.00;;;;5057748;28;20205;-85
2021/11/11 10:14:28;;;;;;;48.27;25.57;;;8.90;99.90;9.90;97509.00;;;;5056865;28;20740;-86
2021/11/11 10:17:20;;;;;;;40.20;24.50;;;9.30;99.90;10.10;97505.00;;;;5054923;28;20224;-84
2021/11/11 10:20:11;;;;;;;38.07;24.97;;;9.70;99.90;10.30;97495.00;;;;5053096;28;20212;-84
2021/11/11 10:22:59;;;;;;;36.80;24.63;;;10.10;99.90;10.60;97500.00;;;;5053847;28;20215;-85
2021/11/11 10:26:22;;;;;;;45.83;22.23;;;10.40;99.90;10.80;97497.00;;;;5053601;28;20227;-85
2021/11/11 10:29:40;;;;;;;31.53;22.93;;;10.80;99.90;11.10;97483.00;;;;5055930;28;20201;-85
2021/11/11 10:32:33;;;;;;;35.67;22.10;;;11.00;99.90;10.80;97481.00;;;;5056836;28;20213;-86
2021/11/11 10:35:24;;;;;;;31.53;21.70;;;11.20;99.90;11.40;97469.00;;;;5056660;28;20702;-86
2021/11/11 10:38:17;;;;;;;32.63;20.70;;;11.40;99.90;11.70;97466.00;;;;5059849;28;20200;-87
2021/11/11 10:41:05;;;;;;;35.67;23.63;;;11.60;99.90;12.10;97474.00;;;;5057984;28;20205;-86
2021/11/11 10:43:54;;;;;;;32.37;21.47;;;11.90;99.90;12.10;97463.00;;;;5055531;28;20580;-86
2021/11/11 10:46:55;;;;;;;29.93;21.87;;;12.10;99.90;12.40;97466.00;;;;5061040;28;20221;-85
2021/11/11 10:49:45;;;;;;;30.63;21.30;;;12.30;99.90;12.60;97452.00;;;;5061943;28;20204;-87
2021/11/11 10:52:39;;;;;;;29.67;21.33;;;12.60;99.90;12.80;97466.00;;;;5061661;28;20201;-85
2021/11/11 10:55:31;;;;;;;30.77;18.27;;;12.80;99.90;13.00;97457.00;;;;5060665;28;20216;-85
2021/11/11 10:58:22;;;;;;;32.50;22.40;;;13.00;99.90;13.00;97452.00;;;;5054481;28;20224;-86
2021/11/11 11:01:14;;;;;;;30.63;20.83;;;13.10;99.90;13.30;97441.00;;;;5061507;28;20197;-86
2021/11/11 11:04:06;;;;;;;28.40;21.10;;;13.20;99.90;13.60;97444.00;;;;5062655;28;20216;-86
2021/11/11 11:07:15;;;;;;;26.00;19.43;;;13.40;99.90;13.60;97445.00;;;;5063341;28;20228;-87
2021/11/11 11:10:07;;;;;;;28.03;19.30;;;13.60;99.90;13.70;97455.00;;;;5066110;28;20204;-86
2021/11/11 11:12:57;;;;;;;24.57;19.17;;;13.80;99.90;13.90;97444.00;;;;5062844;28;20200;-85
2021/11/11 11:15:50;;;;;;;25.00;19.40;;;13.90;99.90;13.40;97442.00;;;;5058933;28;20228;-85
2021/11/11 11:18:43;;;;;;;25.47;19.53;;;13.90;99.90;13.40;97447.00;;;;5058641;28;20227;-85
2021/11/11 11:21:40;;;;;;;24.97;19.77;;;13.90;99.90;13.40;97438.00;;;;5054559;28;20213;-84
2021/11/11 11:24:32;;;;;;;26.47;19.43;;;13.80;99.90;13.50;97430.00;;;;5054677;28;20213;-85
2021/11/11 11:27:33;;;;;;;26.80;18.23;;;13.80;99.90;13.30;97438.00;;;;5047054;28;20220;-85
2021/11/11 11:30:22;;;;;;;26.13;19.47;;;13.70;99.90;13.40;97418.00;;;;5045200;28;20200;-85
2021/11/11 11:33:23;;;;;;;26.30;20.00;;;13.60;99.90;13.60;97412.00;;;;5048670;28;20616;-84
2021/11/11 11:36:16;;;;;;;32.97;21.23;;;13.60;99.90;13.90;97419.00;;;;5042332;28;20227;-84
2021/11/11 11:39:09;;;;;;;27.10;18.60;;;13.80;99.90;14.30;97417.00;;;;5044133;28;20220;-85
2021/11/11 11:42:02;;;;;;;29.50;18.97;;;14.00;99.90;14.30;97416.00;;;;5045072;28;20928;-85
2021/11/11 11:44:55;;;;;;;28.60;20.37;;;14.20;99.90;14.20;97398.00;;;;5049619;28;20658;-84
2021/11/11 11:47:48;;;;;;;25.23;18.03;;;14.40;99.90;14.20;97399.00;;;;5035619;28;20483;-85
2021/11/11 11:50:47;;;;;;;22.97;18.57;;;14.60;99.90;14.20;97391.00;;;;5035185;28;21053;-85
2021/11/11 11:53:40;;;;;;;28.30;19.97;;;14.70;99.90;14.60;97392.00;;;;5045790;28;20204;-85
2021/11/11 11:56:38;;;;;;;29.70;20.77;;;14.70;99.90;14.50;97400.00;;;;5042186;28;20708;-85
2021/11/11 11:59:32;;;;;;;31.57;20.70;;;14.70;99.90;14.00;97396.00;;;;5040214;28;20207;-84
2021/11/11 12:02:28;;;;;;;41.97;22.20;;;14.70;99.90;13.70;97393.00;;;;5045256;28;20197;-86
2021/11/11 12:05:26;;;;;;;35.53;22.00;;;14.60;99.90;13.70;97386.00;;;;5045970;28;20475;-84
2021/11/11 12:08:26;;;;;;;37.80;24.00;;;14.50;99.90;14.20;97379.00;;;;5047723;28;20224;-84
2021/11/11 12:14:43;;;;;;;37.90;25.03;;;14.50;99.90;14.40;97390.00;;;;5001634;28;20203;-85
2021/11/11 12:40:31;;;;;;;31.77;20.07;;;14.50;98.20;13.80;97371.00;;;;5003940;28;20709;-83
2021/11/11 12:43:22;;;;;;;25.60;19.43;;;14.30;98.10;13.50;97383.00;;;;5041645;28;20200;-83
2021/11/11 12:46:41;;;;;;;27.73;19.80;;;14.10;98.40;12.40;97380.00;;;;5038932;28;20224;-84
2021/11/11 12:49:32;;;;;;;28.67;19.30;;;13.70;98.40;12.20;97372.00;;;;5042546;28;20201;-83
2021/11/11 12:52:25;;;;;;;26.33;19.93;;;13.10;99.30;11.90;97365.00;;;;5049396;28;20197;-84
2021/11/11 12:55:17;;;;;;;27.37;19.80;;;12.70;99.70;11.40;97356.00;;;;5045542;28;20204;-84
2021/11/11 12:58:11;;;;;;;34.00;19.73;;;12.30;99.90;11.50;97364.00;;;;5043246;28;20693;-84
2021/11/11 13:01:05;;;;;;;30.90;21.43;;;12.00;99.90;11.30;97361.00;;;;5045821;28;20673;-84
2021/11/11 13:03:58;;;;;;;31.77;21.30;;;11.80;99.90;10.90;97377.00;;;;5052737;28;20200;-84
2021/11/11 13:06:51;;;;;;;35.00;22.43;;;11.40;99.90;10.50;97372.00;;;;5050694;28;20224;-84
2021/11/11 13:09:40;;;;;;;30.87;22.53;;;11.20;99.90;10.30;97386.00;;;;5054884;28;20201;-83
2021/11/11 13:12:42;;;;;;;33.33;22.03;;;10.90;99.90;9.70;97375.00;;;;5053965;28;20196;-85
2021/11/11 13:15:43;;;;;;;41.50;23.37;;;10.50;99.90;9.10;97380.00;;;;5054373;28;20224;-83
2021/11/11 13:18:44;;;;;;;35.53;22.40;;;10.00;99.90;9.00;97386.00;;;;5044460;28;20228;-83
2021/11/11 13:21:48;;;;;;;34.83;21.73;;;9.60;99.90;8.90;97381.00;;;;5041897;28;20577;-83
2021/11/11 13:24:53;;;;;;;33.20;22.13;;;9.30;99.90;8.60;97377.00;;;;5046138;28;20204;-84
2021/11/11 13:28:12;;;;;;;37.40;23.07;;;9.00;99.90;8.50;97394.00;;;;5050424;28;20219;-83
2021/11/11 15:16:35;;;;;;;40.17;23.97;;;6.20;99.90;6.20;97399.00;;;;5055116;28;20232;-86
2021/11/11 16:01:05;;;;;;;38.60;22.67;;;5.90;99.90;6.00;97430.00;;;;5046665;28;20440;-86